Time;durP1;ratioP1;P1;durP2;ratioP2;P2;SDS_P1;SDS_P2;PMS_P1;PMS_P2;Temp;Humidity;BMP_temperature;BMP_pressure;BME280_temperature;BME280_humidity;BME280_pressure;Samples;Min_cycle;Max_cycle;Signal;HPM_P1;HPM_P2
2023/06/08 00:02:06;;;;;;;6.88;4.47;;;;;;;15.71;39.98;95614.91;4924360;29;20038;-73
2023/06/08 00:04:32;;;;;;;7.72;4.63;;;;;;;15.66;40.17;95612.03;4924712;29;20051;-73
2023/06/08 00:07:03;;;;;;;6.68;4.15;;;;;;;15.61;40.58;95612.66;4924178;29;20663;-73
2023/06/08 00:09:30;;;;;;;6.35;4.28;;;;;;;15.57;40.59;95607.94;4923684;29;20491;-73
2023/06/08 00:11:55;;;;;;;7.18;4.60;;;;;;;15.55;40.63;95608.13;4923952;29;20050;-73
2023/06/08 00:14:21;;;;;;;4.68;4.10;;;;;;;15.58;40.62;95607.75;4924541;29;20036;-72
2023/06/08 00:16:48;;;;;;;7.15;4.88;;;;;;;15.49;40.62;95601.75;4924100;29;20059;-73
2023/06/08 00:19:14;;;;;;;8.43;4.72;;;;;;;15.44;40.96;95604.19;4923803;29;20522;-73
2023/06/08 00:21:42;;;;;;;7.10;4.88;;;;;;;15.35;40.83;95600.94;4924398;29;20043;-73
2023/06/08 00:24:09;;;;;;;8.75;4.60;;;;;;;15.34;41.12;95598.47;4923437;29;20435;-73
2023/06/08 00:26:34;;;;;;;7.63;4.80;;;;;;;15.17;41.80;95600.75;4923988;29;20042;-73
2023/06/08 00:29:00;;;;;;;7.47;4.60;;;;;;;15.20;40.87;95593.09;4924382;29;20513;-73
2023/06/08 00:31:25;;;;;;;6.50;4.65;;;;;;;15.29;41.76;95590.19;4923796;29;20107;-73
2023/06/08 00:33:50;;;;;;;7.00;4.82;;;;;;;15.23;42.00;95584.66;4923311;29;20049;-73
2023/06/08 00:36:16;;;;;;;6.63;4.97;;;;;;;15.30;42.26;95586.50;4923322;29;20032;-72
2023/06/08 00:38:41;;;;;;;7.80;5.07;;;;;;;15.29;41.79;95584.84;4923842;29;20039;-73
2023/06/08 00:41:07;;;;;;;6.88;4.80;;;;;;;15.30;41.74;95573.91;4924447;29;20024;-73
2023/06/08 00:43:32;;;;;;;8.30;4.75;;;;;;;15.18;42.30;95578.25;4924395;29;20552;-73
2023/06/08 00:45:58;;;;;;;8.88;4.95;;;;;;;15.19;42.62;95578.06;4925316;29;20040;-73
2023/06/08 00:48:25;;;;;;;7.82;4.75;;;;;;;15.26;42.11;95574.56;4927272;28;20071;-73
2023/06/08 00:50:50;;;;;;;7.70;4.82;;;;;;;15.23;42.19;95571.25;4931865;29;20042;-72
2023/06/08 00:53:16;;;;;;;8.52;5.00;;;;;;;15.15;42.45;95576.81;4924012;29;20050;-73
2023/06/08 00:55:43;;;;;;;8.35;5.10;;;;;;;15.15;42.09;95570.63;4919365;29;20276;-73
2023/06/08 00:58:13;;;;;;;8.00;5.20;;;;;;;15.03;42.78;95575.81;4928404;29;20075;-73
2023/06/08 01:00:39;;;;;;;6.88;5.03;;;;;;;15.02;42.64;95568.81;4923406;29;20064;-73
2023/06/08 01:03:06;;;;;;;6.47;5.00;;;;;;;14.98;42.74;95576.44;4923759;29;20035;-72
2023/06/08 01:05:32;;;;;;;7.60;5.20;;;;;;;14.94;42.88;95575.19;4923480;29;20546;-73
2023/06/08 01:08:19;;;;;;;8.82;5.18;;;;;;;15.02;42.58;95576.84;4923667;29;20039;-73
2023/06/08 01:11:11;;;;;;;10.20;4.75;;;;;;;14.98;42.70;95577.25;4907903;29;20403;-72
2023/06/08 01:13:42;;;;;;;7.78;4.57;;;;;;;14.93;42.79;95581.59;4929565;29;20043;-73
2023/06/08 01:16:08;;;;;;;7.68;5.07;;;;;;;15.01;42.67;95573.34;4923334;29;20075;-73
2023/06/08 01:18:38;;;;;;;7.63;5.18;;;;;;;14.89;43.05;95572.31;4916727;29;20066;-72
2023/06/08 01:21:24;;;;;;;6.75;5.00;;;;;;;14.98;42.89;95571.06;4919830;29;20542;-73
2023/06/08 01:24:14;;;;;;;6.35;5.13;;;;;;;14.93;42.83;95566.31;4923416;29;20047;-73
2023/06/08 01:26:40;;;;;;;7.55;4.70;;;;;;;14.85;43.23;95571.88;4921083;29;20574;-72
2023/06/08 01:29:05;;;;;;;6.35;4.90;;;;;;;14.76;43.35;95567.78;4914766;29;20031;-73
2023/06/08 01:31:31;;;;;;;7.28;4.93;;;;;;;14.91;42.85;95564.88;4922960;29;20055;-73
2023/06/08 01:33:57;;;;;;;7.78;4.85;;;;;;;14.96;42.60;95563.22;4923413;29;20059;-73
2023/06/08 01:36:29;;;;;;;6.88;5.05;;;;;;;14.88;42.68;95565.28;4915014;29;20040;-73
2023/06/08 01:39:06;;;;;;;7.00;4.88;;;;;;;14.89;42.73;95567.75;4903398;29;20035;-72
2023/06/08 01:41:39;;;;;;;7.95;4.55;;;;;;;14.85;42.78;95558.50;4903149;29;20526;-73
2023/06/08 01:44:05;;;;;;;7.25;4.93;;;;;;;14.82;42.89;95558.94;4916117;29;20259;-73
2023/06/08 01:46:30;;;;;;;6.68;4.85;;;;;;;14.79;42.75;95556.66;4908499;29;20024;-73
2023/06/08 01:48:58;;;;;;;5.85;4.72;;;;;;;14.83;42.69;95557.88;4914235;29;20368;-73
2023/06/08 01:51:24;;;;;;;7.30;4.75;;;;;;;14.69;42.82;95559.72;4920418;29;20043;-73
2023/06/08 01:53:50;;;;;;;6.40;4.70;;;;;;;14.71;42.73;95563.00;4922758;29;20094;-73
2023/06/08 01:56:15;;;;;;;5.25;4.30;;;;;;;14.69;42.92;95557.03;4922548;29;20511;-73
2023/06/08 01:58:40;;;;;;;8.45;4.93;;;;;;;14.69;42.72;95554.34;4926646;29;20031;-72
2023/06/08 02:01:06;;;;;;;8.55;5.00;;;;;;;14.61;43.21;95558.03;4927436;29;20591;-73
2023/06/08 02:03:31;;;;;;;7.13;4.97;;;;;;;14.72;42.70;95548.56;4926496;29;20047;-73
2023/06/08 02:05:56;;;;;;;6.43;4.68;;;;;;;14.69;42.95;95557.84;4926475;29;20095;-73
2023/06/08 02:08:22;;;;;;;7.03;4.90;;;;;;;14.59;42.77;95552.88;4926575;29;20349;-73
2023/06/08 02:10:47;;;;;;;7.65;4.82;;;;;;;14.66;42.80;95560.13;4926540;29;20407;-72
2023/06/08 02:13:13;;;;;;;8.48;4.78;;;;;;;14.64;42.70;95559.47;4922615;29;20031;-73
2023/06/08 02:15:38;;;;;;;5.68;4.82;;;;;;;14.40;43.39;95557.22;4926166;29;20039;-73
2023/06/08 02:18:05;;;;;;;6.72;4.90;;;;;;;14.56;42.67;95549.81;4926316;29;20044;-73
2023/06/08 02:20:33;;;;;;;7.18;4.97;;;;;;;14.39;43.41;95557.41;4924543;29;20640;-73
2023/06/08 02:22:58;;;;;;;5.90;4.70;;;;;;;14.38;43.17;95548.53;4926761;29;20558;-73
2023/06/08 02:25:23;;;;;;;7.97;5.00;;;;;;;14.61;42.81;95544.66;4926616;29;20040;-73
2023/06/08 02:27:49;;;;;;;6.38;4.70;;;;;;;14.52;42.80;95548.56;4926179;29;20142;-73
2023/06/08 02:30:15;;;;;;;8.85;5.28;;;;;;;14.45;43.08;95543.22;4926360;29;20047;-73
2023/06/08 02:32:45;;;;;;;10.25;5.40;;;;;;;14.50;42.94;95547.94;4926374;29;20289;-73
2023/06/08 02:35:11;;;;;;;6.78;4.65;;;;;;;14.54;42.84;95544.66;4925382;29;20044;-73
2023/06/08 02:37:36;;;;;;;7.30;4.78;;;;;;;14.63;42.62;95549.81;4926145;29;20042;-73
2023/06/08 02:40:04;;;;;;;10.40;5.10;;;;;;;14.51;42.92;95550.41;4926241;29;20418;-73
2023/06/08 02:42:29;;;;;;;7.78;5.00;;;;;;;14.49;42.93;95548.97;4926450;29;20310;-73
2023/06/08 02:44:55;;;;;;;7.72;4.90;;;;;;;14.57;42.88;95546.09;4925893;29;20225;-73
2023/06/08 02:47:20;;;;;;;6.45;4.65;;;;;;;14.64;42.83;95540.72;4925768;29;20040;-73
2023/06/08 02:49:45;;;;;;;6.10;5.03;;;;;;;14.63;42.54;95536.41;4925701;29;20032;-73
2023/06/08 02:52:11;;;;;;;7.32;5.07;;;;;;;14.62;42.32;95548.97;4926000;29;20510;-73
2023/06/08 02:54:36;;;;;;;7.40;4.60;;;;;;;14.60;42.43;95545.69;4925962;29;20111;-72
2023/06/08 02:57:02;;;;;;;5.68;4.50;;;;;;;14.64;42.55;95541.56;4926212;29;20034;-73
2023/06/08 02:59:29;;;;;;;6.43;4.97;;;;;;;14.60;42.96;95540.34;4925831;29;20038;-73
2023/06/08 03:01:56;;;;;;;6.10;4.47;;;;;;;14.59;42.63;95536.00;4924111;29;20245;-73
2023/06/08 03:04:24;;;;;;;8.80;4.97;;;;;;;14.56;42.39;95537.25;4924901;29;20510;-73
2023/06/08 03:06:53;;;;;;;7.25;4.82;;;;;;;14.58;42.50;95534.34;4925514;29;20079;-72
2023/06/08 03:09:28;;;;;;;5.75;4.40;;;;;;;14.56;42.73;95533.75;4925736;29;20027;-73
2023/06/08 03:11:54;;;;;;;7.65;4.70;;;;;;;14.46;42.77;95529.59;4925700;29;20036;-73
2023/06/08 03:14:19;;;;;;;7.20;4.72;;;;;;;14.49;43.02;95535.59;4925550;29;20443;-73
2023/06/08 03:16:47;;;;;;;8.20;4.93;;;;;;;14.58;42.77;95523.63;4924407;29;20490;-73
2023/06/08 03:19:13;;;;;;;6.70;4.60;;;;;;;14.60;42.48;95526.94;4925377;29;20086;-73
2023/06/08 03:21:41;;;;;;;5.72;4.50;;;;;;;14.62;42.26;95522.19;4925815;29;20031;-73
2023/06/08 03:24:07;;;;;;;;;;;;;;;14.56;42.59;95523.03;4925874;29;20604;-73
2023/06/08 03:26:32;;;;;;;5.67;4.40;;;;;;;14.51;42.51;95515.59;4924847;29;19930;-72
2023/06/08 03:28:57;;;;;;;5.55;4.57;;;;;;;14.55;42.39;95514.16;4925364;29;20279;-73
2023/06/08 03:31:24;;;;;;;5.80;4.55;;;;;;;14.56;42.42;95517.66;4924415;29;20035;-73
2023/06/08 03:33:49;;;;;;;6.95;5.00;;;;;;;14.53;42.34;95515.41;4925347;29;20054;-73
2023/06/08 03:36:15;;;;;;;9.40;4.93;;;;;;;14.54;42.47;95509.84;4924877;29;20027;-73
2023/06/08 03:38:41;;;;;;;6.18;4.70;;;;;;;14.55;42.41;95510.66;4924633;29;20068;-72
2023/06/08 03:41:07;;;;;;;5.97;4.55;;;;;;;14.56;42.54;95515.00;4925325;29;20039;-73
2023/06/08 03:43:33;;;;;;;8.65;4.57;;;;;;;14.59;42.65;95527.97;4924862;29;20067;-73
2023/06/08 03:45:58;;;;;;;7.00;4.40;;;;;;;14.46;42.75;95526.09;4891886;29;20450;-73
2023/06/08 03:48:25;;;;;;;7.05;4.60;;;;;;;14.43;42.50;95522.00;4924814;29;20131;-73
2023/06/08 03:50:52;;;;;;;7.57;4.75;;;;;;;14.37;42.81;95519.28;4924599;29;20230;-73
2023/06/08 03:53:17;;;;;;;7.88;5.45;;;;;;;14.42;43.25;95522.19;4925180;29;20566;-73
2023/06/08 03:55:42;;;;;;;7.28;4.55;;;;;;;14.45;43.41;95525.28;4924860;29;20035;-73
2023/06/08 03:58:08;;;;;;;6.30;4.78;;;;;;;14.41;42.99;95521.34;4925213;29;20043;-73
2023/06/08 04:00:33;;;;;;;9.25;5.60;;;;;;;14.12;43.58;95519.88;4923035;29;20055;-73
2023/06/08 04:02:58;;;;;;;8.38;4.95;;;;;;;14.35;43.61;95514.16;4924326;29;20036;-73
2023/06/08 04:05:24;;;;;;;6.13;4.47;;;;;;;14.51;43.25;95520.16;4924854;29;20027;-73
2023/06/08 04:07:52;;;;;;;5.53;4.50;;;;;;;14.44;42.95;95515.59;4912303;29;20400;-73
2023/06/08 04:10:17;;;;;;;8.48;5.10;;;;;;;14.58;43.07;95512.91;4924509;29;20047;-73
2023/06/08 04:12:43;;;;;;;5.80;4.50;;;;;;;14.56;43.04;95517.66;4924858;29;20110;-73
2023/06/08 04:15:09;;;;;;;7.57;4.70;;;;;;;14.86;42.59;95506.56;4911065;29;20415;-73
2023/06/08 04:17:34;;;;;;;7.53;4.82;;;;;;;14.94;42.51;95508.19;4924645;29;20059;-73
2023/06/08 04:20:00;;;;;;;8.10;4.75;;;;;;;14.85;42.53;95504.88;4924011;29;20044;-73
2023/06/08 04:22:27;;;;;;;9.45;5.30;;;;;;;14.94;42.58;95510.88;4924488;29;20118;-73
2023/06/08 04:24:52;;;;;;;5.22;4.60;;;;;;;14.92;42.68;95504.91;4924276;29;20047;-73
2023/06/08 04:27:19;;;;;;;6.45;4.90;;;;;;;14.91;42.51;95516.63;4923832;29;20039;-73
2023/06/08 04:29:45;;;;;;;7.00;4.70;;;;;;;14.97;42.53;95508.59;4924054;29;20086;-73
2023/06/08 04:32:11;;;;;;;6.28;4.80;;;;;;;14.82;42.62;95518.72;4924158;29;20487;-73
2023/06/08 04:34:37;;;;;;;8.27;4.70;;;;;;;14.99;42.42;95513.72;4923270;29;20522;-73
2023/06/08 04:37:02;;;;;;;7.50;4.70;;;;;;;15.23;42.15;95517.59;4923823;29;20352;-73
2023/06/08 04:39:28;;;;;;;6.72;4.30;;;;;;;15.10;42.48;95518.47;4924052;29;20518;-72
2023/06/08 04:41:55;;;;;;;6.43;4.63;;;;;;;15.25;41.98;95512.03;4924706;29;20217;-73
2023/06/08 04:44:20;;;;;;;5.80;4.35;;;;;;;15.27;42.11;95523.38;4923308;29;20681;-73
2023/06/08 04:46:47;;;;;;;8.18;4.57;;;;;;;15.43;41.74;95516.72;4923912;29;20028;-72
2023/06/08 04:49:12;;;;;;;7.13;4.60;;;;;;;15.66;41.40;95518.13;4924187;29;20027;-73
2023/06/08 04:51:40;;;;;;;6.63;4.93;;;;;;;15.80;41.14;95518.03;4923735;29;20522;-73
2023/06/08 04:54:13;;;;;;;11.00;5.00;;;;;;;15.84;40.89;95517.41;4924316;29;20333;-73
2023/06/08 04:56:40;;;;;;;9.38;4.78;;;;;;;15.85;40.70;95521.72;4923115;29;20321;-73
2023/06/08 04:59:06;;;;;;;5.53;4.22;;;;;;;15.95;40.64;95518.59;4917425;29;20098;-73
2023/06/08 05:01:32;;;;;;;8.02;4.90;;;;;;;15.88;41.00;95524.00;4924062;29;20490;-73
2023/06/08 05:03:57;;;;;;;5.32;4.35;;;;;;;16.18;40.48;95527.16;4923686;29;20031;-73
2023/06/08 05:06:22;;;;;;;5.03;4.03;;;;;;;16.22;40.39;95526.50;4924114;29;20428;-73
2023/06/08 05:08:48;;;;;;;6.88;4.38;;;;;;;16.28;40.09;95526.69;4923146;29;20091;-73
2023/06/08 05:11:13;;;;;;;7.13;4.50;;;;;;;16.21;40.45;95529.38;4923405;29;20059;-73
2023/06/08 05:13:39;;;;;;;7.25;4.10;;;;;;;16.50;40.11;95532.53;4923349;29;20747;-73
2023/06/08 05:16:04;;;;;;;6.95;4.13;;;;;;;16.42;39.90;95528.25;4923522;29;20066;-72
2023/06/08 05:18:30;;;;;;;5.80;4.20;;;;;;;16.63;39.96;95529.75;4923928;29;20415;-73
2023/06/08 05:20:55;;;;;;;6.55;4.45;;;;;;;16.63;39.63;95535.13;4923590;29;20051;-73
2023/06/08 05:23:21;;;;;;;6.25;4.20;;;;;;;16.72;39.60;95537.53;4922619;29;20044;-73
2023/06/08 05:25:46;;;;;;;6.85;4.05;;;;;;;16.96;39.31;95524.31;4925544;29;20028;-73
2023/06/08 05:28:11;;;;;;;4.88;4.00;;;;;;;17.11;39.32;95529.34;4919916;29;20088;-73
2023/06/08 05:30:37;;;;;;;7.00;4.40;;;;;;;17.00;39.17;95522.84;4926449;29;20035;-73
2023/06/08 05:33:02;;;;;;;5.43;4.30;;;;;;;17.15;39.17;95526.03;4927496;29;20056;-73
2023/06/08 05:35:28;;;;;;;5.93;4.07;;;;;;;17.17;38.69;95517.72;4927139;29;20226;-72
2023/06/08 05:37:53;;;;;;;4.82;3.97;;;;;;;17.33;38.40;95531.66;4927612;29;20053;-73
2023/06/08 05:40:19;;;;;;;7.22;4.13;;;;;;;17.32;37.49;95525.44;4927260;29;20039;-73
2023/06/08 05:42:44;;;;;;;4.95;4.03;;;;;;;17.62;38.49;95523.84;4926647;29;20036;-72
2023/06/08 05:45:11;;;;;;;5.13;4.05;;;;;;;17.67;38.56;95527.50;4927207;29;20027;-72
2023/06/08 05:47:36;;;;;;;5.47;4.20;;;;;;;17.69;38.34;95527.28;4926620;29;20036;-73
2023/06/08 05:50:02;;;;;;;5.63;4.03;;;;;;;17.80;38.36;95523.84;4931870;29;20035;-73
2023/06/08 05:52:27;;;;;;;4.97;3.85;;;;;;;17.98;37.96;95530.25;4925805;29;20104;-72
2023/06/08 05:54:52;;;;;;;5.38;3.97;;;;;;;18.05;37.17;95525.59;4926941;29;20038;-72
2023/06/08 05:57:19;;;;;;;4.78;3.90;;;;;;;18.16;36.80;95526.69;4926156;29;20035;-73
2023/06/08 05:59:44;;;;;;;4.40;3.80;;;;;;;17.90;36.55;95523.34;4926969;29;20031;-73
2023/06/08 06:02:10;;;;;;;5.18;4.20;;;;;;;18.20;37.73;95521.69;4926794;29;20046;-73
2023/06/08 06:04:36;;;;;;;5.68;4.03;;;;;;;18.49;36.83;95527.25;4926300;29;20074;-73
2023/06/08 06:07:02;;;;;;;5.88;3.88;;;;;;;18.33;37.12;95527.94;4926637;29;20047;-73
2023/06/08 06:09:28;;;;;;;7.68;4.03;;;;;;;18.60;37.08;95527.56;4926680;29;20538;-73
2023/06/08 06:11:53;;;;;;;11.48;4.40;;;;;;;18.49;37.04;95521.88;4926017;29;20039;-73
2023/06/08 06:14:19;;;;;;;5.25;4.20;;;;;;;18.36;37.29;95527.47;4926537;29;20032;-73
2023/06/08 06:16:44;;;;;;;6.85;4.28;;;;;;;18.71;36.45;95523.22;4926177;29;20459;-73
2023/06/08 06:19:10;;;;;;;4.03;3.63;;;;;;;18.21;36.72;95519.78;4926213;29;20035;-72
2023/06/08 06:21:35;;;;;;;4.20;3.80;;;;;;;18.82;36.57;95528.63;4926899;29;20353;-73
2023/06/08 06:24:00;;;;;;;5.88;4.07;;;;;;;18.78;36.56;95524.75;4926638;29;20537;-73
2023/06/08 06:26:26;;;;;;;8.50;4.15;;;;;;;18.72;36.84;95525.69;4925833;29;20140;-73
2023/06/08 06:28:51;;;;;;;6.03;4.40;;;;;;;19.05;36.43;95515.38;4926492;29;20039;-73
2023/06/08 06:31:17;;;;;;;6.18;3.80;;;;;;;19.16;36.47;95524.53;4926145;29;20035;-73
2023/06/08 06:33:42;;;;;;;5.30;3.90;;;;;;;18.99;34.50;95525.25;4926631;29;20368;-73
2023/06/08 06:36:07;;;;;;;5.05;4.25;;;;;;;19.15;35.58;95522.88;4926028;29;20040;-73
2023/06/08 06:38:33;;;;;;;5.03;4.20;;;;;;;19.37;35.88;95523.13;4925329;29;20039;-71
2023/06/08 06:40:58;;;;;;;5.07;4.00;;;;;;;19.50;35.17;95523.91;4925543;29;20035;-73
2023/06/08 06:43:24;;;;;;;5.82;4.22;;;;;;;19.28;35.65;95527.25;4925941;29;20432;-73
2023/06/08 06:45:50;;;;;;;6.60;3.80;;;;;;;19.59;35.07;95528.72;4926303;29;20090;-73
2023/06/08 06:48:25;;;;;;;5.55;3.97;;;;;;;19.70;33.26;95523.53;4923245;29;20094;-73
2023/06/08 06:50:50;;;;;;;5.63;3.92;;;;;;;19.88;33.71;95525.22;4926225;29;20062;-73
2023/06/08 06:53:16;;;;;;;4.97;3.90;;;;;;;20.09;34.38;95533.78;4926140;29;20028;-73
2023/06/08 06:55:41;;;;;;;6.32;3.75;;;;;;;20.23;33.35;95531.59;4925533;29;20051;-73
2023/06/08 06:58:07;;;;;;;6.05;3.90;;;;;;;20.35;33.38;95534.22;4926286;29;20153;-73
2023/06/08 07:00:37;;;;;;;5.38;3.80;;;;;;;20.30;34.38;95542.25;4925650;29;20063;-73
2023/06/08 07:03:04;;;;;;;5.55;3.72;;;;;;;20.80;33.73;95537.19;4925872;29;20512;-73
2023/06/08 07:05:30;;;;;;;5.72;3.80;;;;;;;20.75;33.71;95537.91;4925666;29;20031;-73
2023/06/08 07:07:55;;;;;;;5.57;3.70;;;;;;;20.34;32.51;95538.84;4925254;29;20046;-73
2023/06/08 07:10:21;;;;;;;8.45;4.20;;;;;;;20.15;33.99;95545.50;4925608;29;20031;-73
2023/06/08 07:12:47;;;;;;;4.97;3.90;;;;;;;20.82;33.45;95540.44;4925896;29;20035;-73
2023/06/08 07:15:13;;;;;;;5.82;4.10;;;;;;;20.69;32.25;95547.00;4925227;29;20762;-73
2023/06/08 07:17:39;;;;;;;4.82;4.00;;;;;;;20.82;32.38;95540.44;4925830;29;20046;-73
2023/06/08 07:20:05;;;;;;;5.10;3.78;;;;;;;21.18;33.29;95545.59;4925353;29;20350;-73
2023/06/08 07:22:30;;;;;;;6.50;3.75;;;;;;;21.40;33.25;95544.84;4925698;29;20067;-73
2023/06/08 07:24:56;;;;;;;6.22;3.72;;;;;;;21.70;33.20;95546.31;4925546;29;20115;-73
2023/06/08 07:27:21;;;;;;;4.97;3.83;;;;;;;21.66;32.28;95543.31;4924956;29;20044;-73
2023/06/08 07:29:47;;;;;;;5.18;4.05;;;;;;;21.69;32.38;95547.41;4916823;29;20042;-73
2023/06/08 07:32:13;;;;;;;8.68;4.10;;;;;;;22.09;31.73;95543.56;4925186;29;20060;-73
2023/06/08 07:34:38;;;;;;;6.22;3.80;;;;;;;22.06;32.11;95549.47;4916948;29;20154;-73
2023/06/08 07:37:04;;;;;;;4.40;3.97;;;;;;;22.15;31.26;95541.72;4925231;29;20039;-73
2023/06/08 07:39:30;;;;;;;5.28;3.72;;;;;;;22.22;30.61;95547.75;4924400;29;20043;-73
2023/06/08 07:41:55;;;;;;;6.10;3.67;;;;;;;22.48;31.21;95556.16;4925122;29;20036;-73
2023/06/08 07:44:20;;;;;;;4.38;3.58;;;;;;;21.75;29.97;95549.09;4924788;29;20039;-73
2023/06/08 07:46:46;;;;;;;5.40;3.67;;;;;;;22.10;30.63;95544.38;4924076;29;20051;-73
2023/06/08 07:49:11;;;;;;;5.90;3.70;;;;;;;22.30;31.18;95551.09;4924640;29;20090;-73
2023/06/08 07:51:37;;;;;;;6.07;3.92;;;;;;;21.88;31.52;95548.72;4924635;29;20531;-73
2023/06/08 07:54:03;;;;;;;6.15;4.10;;;;;;;22.28;30.48;95548.63;4924688;29;20043;-73
2023/06/08 07:56:28;;;;;;;6.57;3.67;;;;;;;22.49;30.91;95548.81;4924435;29;20206;-73
2023/06/08 07:58:54;;;;;;;5.63;4.07;;;;;;;22.50;31.06;95551.28;4924880;29;20040;-72
2023/06/08 08:01:19;;;;;;;6.13;3.85;;;;;;;22.38;30.28;95547.91;4924984;29;20031;-73
2023/06/08 08:03:44;;;;;;;5.40;4.20;;;;;;;22.63;31.39;95541.13;4924597;29;20048;-73
2023/06/08 08:06:10;;;;;;;4.30;3.72;;;;;;;23.01;30.14;95550.09;4922323;29;20049;-73
2023/06/08 08:08:36;;;;;;;4.20;3.72;;;;;;;22.56;30.16;95544.03;4923796;29;20039;-73
2023/06/08 08:11:01;;;;;;;6.97;4.22;;;;;;;23.12;30.30;95545.56;4922814;29;20523;-73
2023/06/08 08:13:28;;;;;;;4.35;3.83;;;;;;;23.04;30.37;95546.03;4924190;29;20087;-73
2023/06/08 08:15:53;;;;;;;5.97;4.20;;;;;;;22.90;29.69;95556.53;4913368;29;20090;-73
2023/06/08 08:18:18;;;;;;;6.25;3.72;;;;;;;23.28;30.13;95556.56;4924582;29;20024;-73
2023/06/08 08:20:44;;;;;;;6.90;4.10;;;;;;;23.41;28.80;95550.69;4924582;29;20517;-73
2023/06/08 08:23:10;;;;;;;8.13;4.20;;;;;;;23.43;29.56;95556.66;4923438;29;20040;-73
2023/06/08 08:25:35;;;;;;;8.02;3.85;;;;;;;23.71;29.42;95550.25;4924457;29;20043;-73
2023/06/08 08:28:01;;;;;;;5.70;3.75;;;;;;;23.95;29.02;95550.66;4924259;29;20039;-73
2023/06/08 08:30:26;;;;;;;5.53;3.80;;;;;;;23.89;27.31;95549.84;4923307;29;20043;-74
2023/06/08 08:32:52;;;;;;;4.97;3.50;;;;;;;24.14;28.73;95552.91;4924275;29;20051;-73
2023/06/08 08:35:17;;;;;;;5.10;3.70;;;;;;;24.43;28.99;95552.44;4922765;29;20039;-73
2023/06/08 08:37:43;;;;;;;4.97;3.80;;;;;;;24.65;28.00;95545.97;4910640;29;20035;-73
2023/06/08 08:40:09;;;;;;;5.93;4.10;;;;;;;24.95;27.77;95555.25;4914105;29;20039;-73
2023/06/08 08:42:37;;;;;;;4.03;3.43;;;;;;;24.95;28.34;95552.53;4923687;29;20039;-72
2023/06/08 08:45:03;;;;;;;4.18;3.58;;;;;;;25.25;27.91;95556.28;4909968;29;20027;-73
2023/06/08 08:47:29;;;;;;;6.38;3.83;;;;;;;24.40;27.38;95551.09;4898638;29;20036;-73
2023/06/08 08:50:09;;;;;;;6.10;3.65;;;;;;;24.27;26.62;95557.81;4914167;29;20047;-73
2023/06/08 08:52:37;;;;;;;4.72;3.45;;;;;;;24.86;27.88;95556.84;4911527;29;20051;-73
2023/06/08 08:55:03;;;;;;;5.35;3.78;;;;;;;24.87;27.49;95551.13;4922605;29;20047;-73
2023/06/08 08:57:28;;;;;;;4.93;3.73;;;;;;;24.24;27.67;95550.22;4923868;29;20126;-73
2023/06/08 08:59:54;;;;;;;4.93;3.58;;;;;;;24.52;26.41;95555.47;4923020;29;20579;-73
2023/06/08 09:02:20;;;;;;;3.78;3.42;;;;;;;24.97;27.39;95553.06;4923935;29;20027;-73
2023/06/08 09:04:46;;;;;;;4.03;3.33;;;;;;;24.93;26.91;95552.81;4923240;29;20513;-73
2023/06/08 09:07:11;;;;;;;5.03;3.70;;;;;;;25.26;27.13;95551.69;4914501;29;20039;-73
2023/06/08 09:09:36;;;;;;;5.38;3.70;;;;;;;24.87;26.80;95540.25;4923833;29;20039;-73
2023/06/08 09:12:04;;;;;;;5.97;3.67;;;;;;;25.29;27.12;95542.97;4923242;29;20163;-73
2023/06/08 09:14:30;;;;;;;7.00;3.60;;;;;;;25.45;27.31;95544.56;4923281;29;20036;-73
2023/06/08 09:16:58;;;;;;;5.47;3.70;;;;;;;25.44;26.90;95542.94;4922454;29;20120;-73
2023/06/08 09:19:24;;;;;;;6.47;3.60;;;;;;;25.64;25.63;95546.72;4921865;29;20692;-73
2023/06/08 09:21:49;;;;;;;4.00;3.40;;;;;;;25.86;25.73;95540.06;4910683;29;20262;-73
2023/06/08 09:24:16;;;;;;;7.17;3.50;;;;;;;25.88;25.04;95532.44;4923646;29;20043;-73
2023/06/08 09:26:59;;;;;;;3.85;3.20;;;;;;;26.27;26.64;95532.81;4922400;29;20055;-73
2023/06/08 09:29:32;;;;;;;7.38;3.58;;;;;;;26.57;24.73;95533.72;4915591;29;20034;-74
2023/06/08 09:31:58;;;;;;;4.90;3.50;;;;;;;26.42;25.88;95532.72;4922495;29;20047;-73
2023/06/08 09:34:25;;;;;;;7.03;3.78;;;;;;;26.87;25.80;95531.84;4923062;29;20038;-73
2023/06/08 09:36:52;;;;;;;;;;;;;;;27.23;25.10;95526.09;4922907;29;20135;-73
2023/06/08 09:39:17;;;;;;;4.63;3.17;;;;;;;27.64;24.00;95521.31;4923471;29;20005;-73
2023/06/08 09:41:54;;;;;;;4.23;3.37;;;;;;;27.70;23.48;95528.34;4914516;29;20550;-73
2023/06/08 09:44:20;;;;;;;5.00;3.35;;;;;;;28.52;23.26;95520.16;4909681;29;20058;-73
2023/06/08 09:46:45;;;;;;;4.33;3.20;;;;;;;28.94;22.39;95527.72;4923037;29;20488;-72
2023/06/08 09:49:13;;;;;;;4.57;3.20;;;;;;;28.59;21.35;95517.06;4923443;29;20046;-73
2023/06/08 09:51:40;;;;;;;4.00;3.17;;;;;;;29.00;22.79;95529.28;4922572;29;20402;-73
2023/06/08 09:54:06;;;;;;;3.70;3.08;;;;;;;29.65;22.30;95529.50;4916973;29;20031;-73
2023/06/08 09:56:31;;;;;;;5.27;3.00;;;;;;;29.42;20.61;95531.28;4910685;29;20027;-73
2023/06/08 09:59:03;;;;;;;4.93;3.20;;;;;;;29.87;21.41;95535.41;4908360;29;20048;-73
2023/06/08 10:01:31;;;;;;;4.07;3.20;;;;;;;30.27;20.69;95523.84;4923336;29;20545;-73
2023/06/08 10:03:57;;;;;;;3.55;3.00;;;;;;;30.25;19.91;95528.84;4922147;29;20131;-73
2023/06/08 10:06:23;;;;;;;4.60;2.88;;;;;;;30.30;21.02;95531.47;4923487;29;20348;-71
2023/06/08 10:08:48;;;;;;;4.77;2.80;;;;;;;30.29;21.07;95529.88;4922872;29;20721;-71
2023/06/08 10:11:14;;;;;;;3.40;3.10;;;;;;;30.29;20.54;95536.19;4907171;29;20047;-71
2023/06/08 10:13:39;;;;;;;4.20;3.20;;;;;;;30.28;20.94;95531.78;4926435;29;20039;-71
2023/06/08 10:16:05;;;;;;;3.73;3.20;;;;;;;29.99;20.25;95524.72;4924579;29;20498;-71
2023/06/08 10:18:31;;;;;;;4.87;2.93;;;;;;;30.17;20.41;95520.22;4926741;29;20489;-71
2023/06/08 10:20:56;;;;;;;3.97;2.90;;;;;;;30.66;20.60;95527.13;4921699;29;20051;-71
2023/06/08 10:23:21;;;;;;;4.83;3.07;;;;;;;30.23;19.97;95520.94;4900222;29;20107;-71
2023/06/08 10:25:49;;;;;;;4.43;3.10;;;;;;;30.13;19.71;95519.19;4914431;29;20035;-73
2023/06/08 10:28:20;;;;;;;3.60;3.22;;;;;;;30.58;20.15;95521.22;4925853;29;20127;-72
2023/06/08 10:30:45;;;;;;;9.70;3.30;;;;;;;30.65;20.20;95514.53;4926101;29;20070;-71
2023/06/08 10:33:19;;;;;;;6.27;3.23;;;;;;;30.78;19.78;95519.13;4926921;29;20600;-72
2023/06/08 10:36:05;;;;;;;9.77;3.30;;;;;;;30.56;20.21;95511.69;4925332;29;20043;-72
2023/06/08 10:38:31;;;;;;;6.65;3.30;;;;;;;30.88;19.68;95517.22;4925457;29;20036;-73
2023/06/08 10:40:56;;;;;;;4.38;3.17;;;;;;;30.75;20.57;95514.25;4924960;29;20098;-72
2023/06/08 10:43:28;;;;;;;6.60;3.40;;;;;;;30.57;20.57;95514.13;4925082;29;20036;-73
2023/06/08 10:45:53;;;;;;;7.53;3.30;;;;;;;30.49;20.07;95512.13;4925786;29;20042;-73
2023/06/08 10:48:19;;;;;;;6.60;3.27;;;;;;;30.26;20.27;95498.34;4925941;29;20573;-73
2023/06/08 10:50:45;;;;;;;5.57;3.10;;;;;;;30.36;20.25;95497.31;4926128;29;20028;-72
2023/06/08 10:53:11;;;;;;;4.13;3.05;;;;;;;30.43;20.57;95494.94;4926085;29;20024;-72
2023/06/08 10:55:36;;;;;;;4.13;3.20;;;;;;;30.39;20.50;95495.88;4911315;29;20544;-73
2023/06/08 10:58:20;;;;;;;5.57;3.17;;;;;;;30.76;19.82;95495.84;4926196;29;20661;-73
2023/06/08 11:00:49;;;;;;;4.85;2.83;;;;;;;30.73;20.44;95497.28;4924140;29;20040;-72
2023/06/08 11:03:17;;;;;;;5.30;3.20;;;;;;;30.54;20.58;95498.25;4924835;29;20503;-73
2023/06/08 11:05:43;;;;;;;5.30;3.17;;;;;;;30.49;19.55;95483.84;4927204;29;20325;-72
2023/06/08 11:08:10;;;;;;;3.95;3.10;;;;;;;30.65;20.71;95492.56;4924998;29;20051;-72
2023/06/08 11:10:36;;;;;;;4.05;2.80;;;;;;;30.74;19.51;95493.41;4916767;29;20376;-72
2023/06/08 11:13:12;;;;;;;3.92;2.97;;;;;;;30.87;20.10;95493.66;4924574;29;20043;-72
2023/06/08 11:15:39;;;;;;;5.28;3.00;;;;;;;31.05;19.31;95489.06;4910357;29;20032;-72
2023/06/08 11:18:04;;;;;;;8.57;3.30;;;;;;;30.49;19.49;95490.16;4925536;29;20052;-73
2023/06/08 11:20:30;;;;;;;5.82;3.10;;;;;;;30.59;19.53;95489.09;4924168;29;20098;-73
2023/06/08 11:22:55;;;;;;;3.97;3.20;;;;;;;30.91;19.18;95483.66;4924545;29;20039;-72
2023/06/08 11:25:22;;;;;;;3.50;3.00;;;;;;;30.16;20.02;95479.38;4925846;29;20491;-72
2023/06/08 11:27:47;;;;;;;3.42;2.90;;;;;;;30.74;19.79;95484.34;4926665;28;20039;-72
2023/06/08 11:30:16;;;;;;;6.33;3.40;;;;;;;30.64;18.64;95468.91;4927408;29;20039;-72
2023/06/08 11:32:44;;;;;;;4.75;3.40;;;;;;;30.84;19.56;95473.94;4925392;29;20429;-72